Time;durP1;ratioP1;P1;durP2;ratioP2;P2;SDS_P1;SDS_P2;PMS_P1;PMS_P2;Temp;Humidity;BMP_temperature;BMP_pressure;BME280_temperature;BME280_humidity;BME280_pressure;Samples;Min_cycle;Max_cycle;Signal;HPM_P1;HPM_P2
2021/05/15 00:02:09;;;;;;;9.23;6.07;;;8.60;99.90;;;;;;5028065;28;20257;-44
2021/05/15 00:04:35;;;;;;;8.48;5.15;;;8.50;99.90;;;;;;5027835;28;20056;-45
2021/05/15 00:07:00;;;;;;;10.57;6.25;;;8.60;99.90;;;;;;5028387;28;20025;-45
2021/05/15 00:09:26;;;;;;;15.35;7.55;;;8.60;99.90;;;;;;5027462;28;20040;-46
2021/05/15 00:11:52;;;;;;;13.13;7.10;;;8.60;99.90;;;;;;5028134;28;20037;-45
2021/05/15 00:14:17;;;;;;;12.88;9.10;;;8.60;99.90;;;;;;5027841;28;20097;-45
2021/05/15 00:16:43;;;;;;;15.02;7.90;;;8.60;99.90;;;;;;5027979;28;20041;-44
2021/05/15 00:19:08;;;;;;;11.55;7.90;;;8.70;99.90;;;;;;5027303;28;20044;-45
2021/05/15 00:21:34;;;;;;;12.68;8.45;;;8.60;99.90;;;;;;5030254;28;20160;-44
2021/05/15 00:24:00;;;;;;;13.70;8.13;;;8.60;99.90;;;;;;5031713;28;20040;-45
2021/05/15 00:26:26;;;;;;;12.90;8.32;;;8.60;99.90;;;;;;5031570;28;20034;-45
2021/05/15 00:28:52;;;;;;;13.43;8.68;;;8.70;99.90;;;;;;5031102;28;20048;-46
2021/05/15 00:31:18;;;;;;;11.65;8.50;;;8.50;99.90;;;;;;5031842;28;20033;-45
2021/05/15 00:33:44;;;;;;;14.23;9.57;;;8.50;99.90;;;;;;5031887;28;20026;-45
2021/05/15 00:36:09;;;;;;;20.33;10.10;;;8.40;99.90;;;;;;5031543;28;20041;-45
2021/05/15 00:38:35;;;;;;;13.90;9.60;;;8.30;99.90;;;;;;5030649;28;20057;-47
2021/05/15 00:41:00;;;;;;;17.90;9.85;;;8.30;99.90;;;;;;5031056;28;20083;-44
2021/05/15 00:43:28;;;;;;;14.07;9.57;;;8.30;99.90;;;;;;5029804;28;20411;-44
2021/05/15 00:45:53;;;;;;;15.82;8.85;;;8.30;99.90;;;;;;5031006;28;20028;-44
2021/05/15 00:48:19;;;;;;;9.45;7.88;;;8.30;99.90;;;;;;5030447;28;20109;-45
2021/05/15 00:50:45;;;;;;;15.63;10.25;;;8.30;99.90;;;;;;5031062;28;20029;-45
2021/05/15 00:53:10;;;;;;;14.57;10.18;;;8.30;99.90;;;;;;5029963;28;20052;-45
2021/05/15 00:55:36;;;;;;;22.27;10.02;;;8.40;99.90;;;;;;5030903;28;20033;-45
2021/05/15 00:58:03;;;;;;;17.40;11.65;;;8.40;99.90;;;;;;5028958;28;20087;-44
2021/05/15 01:00:28;;;;;;;21.52;12.38;;;8.40;99.90;;;;;;5030892;28;20028;-44
2021/05/15 01:02:54;;;;;;;21.95;12.73;;;8.30;99.90;;;;;;5031067;28;20104;-44
2021/05/15 01:05:20;;;;;;;27.13;16.60;;;8.40;99.90;;;;;;5030899;28;20033;-45
2021/05/15 01:07:48;;;;;;;31.85;16.10;;;8.50;99.90;;;;;;5030525;28;20017;-46
2021/05/15 01:10:15;;;;;;;25.85;16.17;;;8.40;99.90;;;;;;5029473;28;20029;-45
2021/05/15 01:12:51;;;;;;;26.92;17.25;;;8.40;99.90;;;;;;5029366;28;20116;-46
2021/05/15 01:15:17;;;;;;;23.70;16.30;;;8.40;99.90;;;;;;5030935;28;20455;-44
2021/05/15 01:17:58;;;;;;;20.30;14.35;;;8.50;99.90;;;;;;5030242;28;20031;-46
2021/05/15 01:20:25;;;;;;;20.02;13.50;;;8.40;99.90;;;;;;5030254;28;20033;-48
2021/05/15 01:22:51;;;;;;;21.08;14.43;;;8.50;99.90;;;;;;5030573;28;20026;-44
2021/05/15 01:25:18;;;;;;;24.17;15.43;;;8.50;99.90;;;;;;5030228;28;20040;-45
2021/05/15 01:27:44;;;;;;;20.58;14.05;;;8.50;99.90;;;;;;5029775;28;20104;-44
2021/05/15 01:30:11;;;;;;;23.60;13.35;;;8.40;99.90;;;;;;5030402;28;20117;-45
2021/05/15 01:32:39;;;;;;;18.42;12.23;;;8.40;99.90;;;;;;5029217;28;20467;-46
2021/05/15 01:35:06;;;;;;;22.35;13.63;;;8.40;99.90;;;;;;5029054;28;20482;-44
2021/05/15 01:37:31;;;;;;;21.63;14.23;;;8.40;99.90;;;;;;5029641;28;20117;-44
2021/05/15 01:39:57;;;;;;;20.48;14.55;;;8.40;99.90;;;;;;5030108;28;20104;-45
2021/05/15 01:42:22;;;;;;;20.52;14.27;;;8.40;99.90;;;;;;5029979;28;20037;-44
2021/05/15 01:44:48;;;;;;;23.75;14.88;;;8.40;99.90;;;;;;5029945;28;20049;-45
2021/05/15 01:47:14;;;;;;;18.45;13.15;;;8.40;99.90;;;;;;5030241;28;20018;-45
2021/05/15 01:49:39;;;;;;;18.17;12.63;;;8.40;99.90;;;;;;5029850;28;20033;-45
2021/05/15 01:52:05;;;;;;;16.30;12.25;;;8.40;99.90;;;;;;5029897;28;20021;-45
2021/05/15 01:54:31;;;;;;;18.08;11.73;;;8.40;99.90;;;;;;5029728;28;20025;-46
2021/05/15 01:56:56;;;;;;;18.05;12.35;;;8.40;99.90;;;;;;5029846;28;20066;-44
2021/05/15 01:59:22;;;;;;;18.92;13.18;;;8.30;99.90;;;;;;5029323;28;20029;-46
2021/05/15 02:01:47;;;;;;;15.23;12.60;;;8.30;99.90;;;;;;5030019;28;20541;-46
2021/05/15 02:04:13;;;;;;;16.17;12.10;;;8.30;99.90;;;;;;5029267;28;20037;-45
2021/05/15 02:06:38;;;;;;;18.17;12.82;;;8.30;99.90;;;;;;5029087;28;20104;-44
2021/05/15 02:09:04;;;;;;;17.08;13.25;;;8.30;99.90;;;;;;5028960;28;20091;-45
2021/05/15 02:11:29;;;;;;;20.63;13.20;;;8.20;99.90;;;;;;5028176;28;20116;-45
2021/05/15 02:13:55;;;;;;;17.40;12.73;;;8.20;99.90;;;;;;5029457;28;20030;-45
2021/05/15 02:16:20;;;;;;;20.15;12.68;;;8.20;99.90;;;;;;5029312;28;20025;-45
2021/05/15 02:18:46;;;;;;;24.08;15.88;;;8.20;99.90;;;;;;5029056;28;20463;-45
2021/05/15 02:21:12;;;;;;;23.05;15.85;;;8.20;99.90;;;;;;5029368;28;20028;-45
2021/05/15 02:23:38;;;;;;;25.35;17.88;;;8.20;99.90;;;;;;5029713;28;20013;-45
2021/05/15 02:26:03;;;;;;;35.95;20.58;;;8.30;99.90;;;;;;5044494;28;20048;-46
2021/05/15 02:28:29;;;;;;;32.17;19.75;;;8.30;99.90;;;;;;5027493;28;20072;-45
2021/05/15 02:30:55;;;;;;;39.83;24.83;;;8.30;99.90;;;;;;5027693;28;20438;-45
2021/05/15 02:33:20;;;;;;;48.22;26.77;;;8.30;99.90;;;;;;5029165;28;20022;-48
2021/05/15 02:35:47;;;;;;;53.60;28.55;;;8.30;99.90;;;;;;5029030;28;20036;-47
2021/05/15 02:38:14;;;;;;;59.30;31.17;;;8.30;99.90;;;;;;5028332;28;20037;-46
2021/05/15 02:40:40;;;;;;;50.40;29.00;;;8.40;99.90;;;;;;5029134;28;20113;-46
2021/05/15 02:43:06;;;;;;;47.30;28.85;;;8.40;99.90;;;;;;5028743;28;20567;-45
2021/05/15 02:45:32;;;;;;;41.03;25.52;;;8.40;99.90;;;;;;5029045;28;20394;-45
2021/05/15 02:47:58;;;;;;;34.85;22.63;;;8.40;99.90;;;;;;5028475;28;20264;-45
2021/05/15 02:50:25;;;;;;;34.83;22.23;;;8.30;99.90;;;;;;5027603;28;20017;-46
2021/05/15 02:52:50;;;;;;;35.88;21.73;;;8.30;99.90;;;;;;5029055;28;20658;-46
2021/05/15 02:55:18;;;;;;;33.80;21.30;;;8.30;99.90;;;;;;5029077;28;20300;-45
2021/05/15 02:57:45;;;;;;;26.63;18.27;;;8.20;99.90;;;;;;5028547;28;20064;-46
2021/05/15 03:00:14;;;;;;;34.30;21.10;;;8.20;99.90;;;;;;5029205;28;20486;-46
2021/05/15 03:02:40;;;;;;;32.00;20.33;;;8.10;99.90;;;;;;5029313;28;20037;-47
2021/05/15 03:05:08;;;;;;;28.88;18.45;;;8.10;99.90;;;;;;5028876;28;20032;-45
2021/05/15 03:07:33;;;;;;;31.40;19.70;;;8.10;99.90;;;;;;5028348;28;20021;-45
2021/05/15 03:09:59;;;;;;;36.95;22.70;;;8.00;99.90;;;;;;5029038;28;20036;-45
2021/05/15 03:12:24;;;;;;;31.52;19.42;;;8.00;99.90;;;;;;5028686;28;20618;-45
2021/05/15 03:14:50;;;;;;;30.52;18.48;;;8.00;99.90;;;;;;5028896;28;20541;-45
2021/05/15 03:17:16;;;;;;;31.00;19.10;;;8.00;99.90;;;;;;5027258;28;20455;-45
2021/05/15 03:19:42;;;;;;;32.58;20.80;;;8.00;99.90;;;;;;5028410;28;20056;-46
2021/05/15 03:22:08;;;;;;;33.30;19.83;;;8.10;99.90;;;;;;5028721;28;20029;-45
2021/05/15 03:24:34;;;;;;;37.75;23.20;;;8.00;99.90;;;;;;5028530;28;20079;-45
2021/05/15 03:27:00;;;;;;;39.20;23.83;;;8.00;99.90;;;;;;5028546;28;20035;-44
2021/05/15 03:29:26;;;;;;;37.22;23.33;;;8.10;99.90;;;;;;5028072;28;20440;-45
2021/05/15 03:31:52;;;;;;;41.25;23.83;;;8.20;99.90;;;;;;5027927;28;20099;-45
2021/05/15 03:34:18;;;;;;;35.33;21.38;;;8.20;99.90;;;;;;5028073;28;20459;-45
2021/05/15 03:36:44;;;;;;;37.55;21.70;;;8.30;99.90;;;;;;5028076;28;20057;-44
2021/05/15 03:39:09;;;;;;;34.30;21.65;;;8.30;99.90;;;;;;5027108;28;20452;-44
2021/05/15 03:41:35;;;;;;;35.20;24.35;;;8.20;99.90;;;;;;5024154;28;20033;-45
2021/05/15 03:44:00;;;;;;;31.27;20.25;;;8.30;99.90;;;;;;5027833;28;20025;-46
2021/05/15 03:46:26;;;;;;;28.92;18.23;;;8.30;99.90;;;;;;5027956;28;20022;-45
2021/05/15 03:48:51;;;;;;;24.40;17.30;;;8.20;99.90;;;;;;5026999;28;20083;-45
2021/05/15 03:51:17;;;;;;;32.92;20.75;;;8.20;99.90;;;;;;5027977;28;20077;-44
2021/05/15 03:53:42;;;;;;;27.80;19.60;;;8.20;99.90;;;;;;5028262;28;20030;-44
2021/05/15 03:56:08;;;;;;;30.08;19.30;;;8.20;99.90;;;;;;5029874;28;20051;-45
2021/05/15 03:58:34;;;;;;;35.70;20.38;;;8.10;99.90;;;;;;5031054;28;20025;-47
2021/05/15 04:00:59;;;;;;;27.75;18.23;;;8.20;99.90;;;;;;5031460;28;20108;-47
2021/05/15 04:03:25;;;;;;;29.05;17.48;;;8.10;99.90;;;;;;5022730;28;20491;-45
2021/05/15 04:05:50;;;;;;;34.08;22.45;;;8.10;99.90;;;;;;5032057;28;20029;-45
2021/05/15 04:08:17;;;;;;;30.35;19.48;;;8.20;99.90;;;;;;5030875;28;20025;-44
2021/05/15 04:10:42;;;;;;;30.52;20.35;;;8.20;99.90;;;;;;5031326;28;20026;-44
2021/05/15 04:13:19;;;;;;;36.17;22.45;;;8.20;99.90;;;;;;5031499;28;20398;-44
2021/05/15 04:15:56;;;;;;;33.90;22.55;;;8.30;99.90;;;;;;5031575;28;20214;-44
2021/05/15 04:18:22;;;;;;;34.08;22.50;;;8.30;99.90;;;;;;5029688;28;20442;-44
2021/05/15 04:20:47;;;;;;;37.35;22.63;;;8.30;99.90;;;;;;5031533;28;20041;-45
2021/05/15 04:23:13;;;;;;;35.78;23.45;;;8.40;99.90;;;;;;5031112;28;20037;-45
2021/05/15 04:25:39;;;;;;;41.78;26.42;;;8.40;99.90;;;;;;5031184;28;20027;-44
2021/05/15 04:28:06;;;;;;;40.38;25.40;;;8.40;99.90;;;;;;5029308;28;20411;-44
2021/05/15 04:30:32;;;;;;;42.35;28.38;;;8.40;99.90;;;;;;5029689;28;20443;-44
2021/05/15 04:32:58;;;;;;;37.03;24.17;;;8.50;99.90;;;;;;5029658;28;20021;-45
2021/05/15 04:35:24;;;;;;;36.63;25.25;;;8.50;99.90;;;;;;5031168;28;20022;-45
2021/05/15 04:37:49;;;;;;;39.30;26.10;;;8.60;99.90;;;;;;5030246;28;20033;-44
2021/05/15 04:40:16;;;;;;;40.70;26.58;;;8.60;99.90;;;;;;5031405;28;20153;-44
2021/05/15 04:42:41;;;;;;;34.75;23.02;;;8.70;99.90;;;;;;5030403;28;20029;-45
2021/05/15 04:45:09;;;;;;;36.65;24.40;;;8.80;99.90;;;;;;5030572;28;20596;-44
2021/05/15 04:47:35;;;;;;;37.38;25.70;;;8.80;99.90;;;;;;5027786;28;20104;-45
2021/05/15 04:50:01;;;;;;;34.97;24.65;;;8.90;99.90;;;;;;5031002;28;20140;-44
2021/05/15 04:52:27;;;;;;;37.92;25.08;;;9.00;99.90;;;;;;5031060;28;20022;-45
2021/05/15 04:54:53;;;;;;;49.50;30.38;;;9.10;99.90;;;;;;5031403;28;20536;-45
2021/05/15 04:57:18;;;;;;;48.08;29.70;;;9.20;99.90;;;;;;5030938;28;20045;-46
2021/05/15 04:59:44;;;;;;;39.15;26.92;;;9.20;99.90;;;;;;5030947;28;20029;-45
2021/05/15 05:02:09;;;;;;;41.22;26.52;;;9.30;99.90;;;;;;5031124;28;20096;-44
2021/05/15 05:04:35;;;;;;;43.17;29.80;;;9.40;99.90;;;;;;5029328;28;20148;-44
2021/05/15 05:07:01;;;;;;;43.22;28.98;;;9.50;99.90;;;;;;5030768;28;20446;-45
2021/05/15 05:09:26;;;;;;;39.95;27.85;;;9.50;99.90;;;;;;5029846;28;20384;-45
2021/05/15 05:11:53;;;;;;;39.47;26.67;;;9.60;99.90;;;;;;5029783;28;20177;-45
2021/05/15 05:14:19;;;;;;;35.67;25.27;;;9.70;99.90;;;;;;5028544;28;20372;-45
2021/05/15 05:16:45;;;;;;;39.35;27.17;;;9.70;99.90;;;;;;5030104;28;20026;-45
2021/05/15 05:19:12;;;;;;;34.58;23.85;;;9.80;99.90;;;;;;5029461;28;20437;-45
2021/05/15 05:21:38;;;;;;;33.92;25.20;;;9.90;99.90;;;;;;5027291;28;20017;-45
2021/05/15 05:24:04;;;;;;;28.65;21.73;;;9.90;99.90;;;;;;5029634;28;20041;-46
2021/05/15 05:26:34;;;;;;;35.13;23.98;;;9.90;99.90;;;;;;5027306;28;20030;-45
2021/05/15 05:29:03;;;;;;;34.03;23.42;;;10.00;99.90;;;;;;5029274;28;20018;-45
2021/05/15 05:31:29;;;;;;;30.23;23.08;;;10.10;99.90;;;;;;5030014;28;20039;-45
2021/05/15 05:33:55;;;;;;;30.30;21.45;;;10.10;99.90;;;;;;5030145;28;20451;-46
2021/05/15 05:36:20;;;;;;;30.50;20.95;;;10.20;99.90;;;;;;5029980;28;20117;-44
2021/05/15 05:38:46;;;;;;;23.50;18.35;;;10.20;99.90;;;;;;5028955;28;20033;-44
2021/05/15 05:41:11;;;;;;;31.30;22.63;;;10.30;99.90;;;;;;5029506;28;20115;-44
2021/05/15 05:43:37;;;;;;;26.60;20.75;;;10.30;99.90;;;;;;5029812;28;20202;-45
2021/05/15 05:46:02;;;;;;;24.80;19.10;;;10.40;99.90;;;;;;5029450;28;20367;-44
2021/05/15 05:48:28;;;;;;;32.17;21.88;;;10.50;99.90;;;;;;5029400;28;20449;-45
2021/05/15 05:50:53;;;;;;;25.05;17.98;;;10.50;99.90;;;;;;5030222;28;20013;-44
2021/05/15 05:53:19;;;;;;;24.67;18.42;;;10.60;99.90;;;;;;5030181;28;20101;-44
2021/05/15 05:55:44;;;;;;;24.17;18.83;;;10.70;99.90;;;;;;5030037;28;20037;-45
2021/05/15 05:58:10;;;;;;;22.08;17.35;;;10.70;99.90;;;;;;5027554;28;20063;-45
2021/05/15 06:00:35;;;;;;;23.02;17.67;;;10.80;99.90;;;;;;5030249;28;20478;-45
2021/05/15 06:03:01;;;;;;;25.00;18.35;;;10.90;99.90;;;;;;5029410;28;20104;-46
2021/05/15 06:05:26;;;;;;;23.98;17.83;;;10.90;99.90;;;;;;5029179;28;20025;-45
2021/05/15 06:07:52;;;;;;;24.88;17.77;;;11.00;99.90;;;;;;5028920;28;20018;-44
2021/05/15 06:10:17;;;;;;;24.35;18.45;;;11.20;99.90;;;;;;5029604;28;20032;-44
2021/05/15 06:12:43;;;;;;;23.38;16.95;;;11.30;99.90;;;;;;5029525;28;20036;-46
2021/05/15 06:15:09;;;;;;;19.98;15.98;;;11.40;99.90;;;;;;5029854;28;20028;-45
2021/05/15 06:17:36;;;;;;;24.40;17.77;;;11.50;99.90;;;;;;5027586;28;20398;-45
2021/05/15 06:20:02;;;;;;;20.98;16.25;;;11.70;99.90;;;;;;5027776;28;20040;-46
2021/05/15 06:22:28;;;;;;;19.95;15.10;;;11.90;99.90;;;;;;5029464;28;20156;-43
2021/05/15 06:24:53;;;;;;;19.52;14.45;;;12.00;99.90;;;;;;5029421;28;20030;-45
2021/05/15 06:27:19;;;;;;;18.55;14.57;;;12.20;99.90;;;;;;5029608;28;20026;-47
2021/05/15 06:29:44;;;;;;;18.95;14.40;;;12.40;99.90;;;;;;5029075;28;20430;-44
2021/05/15 06:32:10;;;;;;;19.73;14.80;;;12.50;99.90;;;;;;5029251;28;20037;-46
2021/05/15 06:34:36;;;;;;;16.90;12.98;;;12.70;99.90;;;;;;5028988;28;20026;-45
2021/05/15 06:37:02;;;;;;;18.83;13.10;;;12.80;99.90;;;;;;5028067;28;20083;-45
2021/05/15 06:39:27;;;;;;;16.30;12.98;;;12.80;99.90;;;;;;5034116;28;20399;-45
2021/05/15 06:41:53;;;;;;;16.33;13.98;;;12.90;99.90;;;;;;5031237;28;20033;-46
2021/05/15 06:44:18;;;;;;;17.48;13.15;;;12.90;99.90;;;;;;5029771;28;20039;-46
2021/05/15 06:46:43;;;;;;;16.13;13.43;;;13.00;99.90;;;;;;5030527;28;20027;-45
2021/05/15 06:49:09;;;;;;;19.23;14.73;;;13.00;99.90;;;;;;5032455;28;20029;-44
2021/05/15 06:51:35;;;;;;;18.30;12.60;;;13.00;99.90;;;;;;5030551;28;20018;-45
2021/05/15 06:54:01;;;;;;;12.82;11.35;;;13.10;99.90;;;;;;5026807;28;20021;-45
2021/05/15 06:56:27;;;;;;;14.85;12.10;;;13.20;99.90;;;;;;5028376;28;20116;-45
2021/05/15 06:58:53;;;;;;;16.48;12.48;;;13.40;99.90;;;;;;5027932;28;20423;-49
2021/05/15 07:01:18;;;;;;;16.42;13.30;;;13.50;99.90;;;;;;5027867;28;20037;-45
2021/05/15 07:03:44;;;;;;;18.42;14.02;;;13.70;99.90;;;;;;5026126;28;20048;-46
2021/05/15 07:06:09;;;;;;;16.75;12.95;;;13.70;99.90;;;;;;5026971;28;20276;-46
2021/05/15 07:08:35;;;;;;;15.27;12.18;;;13.60;99.90;;;;;;5027096;28;20459;-45
2021/05/15 07:11:00;;;;;;;15.32;12.43;;;13.70;99.90;;;;;;5028219;28;20478;-46
2021/05/15 07:13:26;;;;;;;16.33;12.48;;;13.80;99.90;;;;;;5027074;28;20041;-44
2021/05/15 07:15:51;;;;;;;14.20;12.35;;;13.90;99.90;;;;;;5028389;28;20088;-45
2021/05/15 07:18:19;;;;;;;19.13;13.63;;;14.00;99.90;;;;;;5027493;28;20083;-46
2021/05/15 07:20:45;;;;;;;17.45;12.60;;;14.20;99.90;;;;;;5027993;28;20030;-46
2021/05/15 07:23:10;;;;;;;17.17;13.23;;;14.30;99.90;;;;;;5028096;28;20489;-45
2021/05/15 07:25:36;;;;;;;16.33;13.52;;;14.50;99.90;;;;;;5027352;28;20026;-46
2021/05/15 07:28:02;;;;;;;18.50;13.52;;;14.40;99.90;;;;;;5026995;28;20112;-44
2021/05/15 07:30:27;;;;;;;17.63;13.23;;;14.30;99.90;;;;;;5028796;28;20057;-45
2021/05/15 07:32:56;;;;;;;13.93;11.25;;;14.60;99.90;;;;;;5030924;28;20065;-44
2021/05/15 07:35:23;;;;;;;16.83;12.60;;;14.70;99.90;;;;;;5048426;28;20116;-45
2021/05/15 07:37:48;;;;;;;13.50;11.07;;;15.00;99.90;;;;;;5051685;28;20017;-46
2021/05/15 07:40:14;;;;;;;17.20;11.15;;;15.30;99.90;;;;;;5046062;28;20388;-45
2021/05/15 07:42:40;;;;;;;14.20;9.98;;;15.40;99.90;;;;;;5026692;28;20419;-46
2021/05/15 07:45:06;;;;;;;12.10;9.38;;;15.60;99.90;;;;;;5044417;28;20236;-45
2021/05/15 07:47:32;;;;;;;13.40;10.30;;;15.80;99.90;;;;;;5051428;28;20025;-45
2021/05/15 07:49:57;;;;;;;21.05;10.30;;;15.80;99.90;;;;;;5051700;28;20102;-46
2021/05/15 07:52:26;;;;;;;17.75;10.48;;;16.00;99.90;;;;;;5051711;28;20097;-45
2021/05/15 07:54:52;;;;;;;12.60;10.27;;;15.70;99.90;;;;;;5051816;28;20032;-45
2021/05/15 07:57:18;;;;;;;11.57;9.50;;;15.50;99.90;;;;;;5051411;28;20141;-45
2021/05/15 07:59:43;;;;;;;10.10;8.30;;;15.50;99.90;;;;;;5051467;28;20047;-44
2021/05/15 08:02:09;;;;;;;11.43;8.05;;;16.00;99.90;;;;;;5051564;28;20036;-44
2021/05/15 08:04:34;;;;;;;11.52;8.15;;;16.20;99.90;;;;;;5050077;28;20487;-45
2021/05/15 08:07:00;;;;;;;13.27;7.00;;;16.60;99.90;;;;;;5051631;28;20033;-45
2021/05/15 08:09:25;;;;;;;12.10;7.32;;;16.80;99.90;;;;;;5049650;28;20055;-46
2021/05/15 08:11:51;;;;;;;7.97;6.07;;;16.90;99.90;;;;;;5051500;28;20426;-44
2021/05/15 08:14:16;;;;;;;8.10;6.38;;;17.20;99.90;;;;;;5051498;28;20029;-45
2021/05/15 08:16:42;;;;;;;11.27;5.40;;;17.40;99.90;;;;;;5051545;28;20021;-45
2021/05/15 08:19:07;;;;;;;10.77;5.63;;;17.20;99.90;;;;;;5050524;28;20078;-46
2021/05/15 08:21:33;;;;;;;9.10;5.07;;;17.40;99.90;;;;;;5050984;28;20028;-46
2021/05/15 08:23:58;;;;;;;8.02;4.85;;;17.00;99.90;;;;;;5050527;28;20055;-47
2021/05/15 08:26:26;;;;;;;10.32;4.55;;;16.70;99.90;;;;;;5051007;28;20116;-44
2021/05/15 08:28:54;;;;;;;7.15;3.92;;;16.90;99.90;;;;;;5047602;28;20028;-45
2021/05/15 08:31:19;;;;;;;4.90;3.22;;;17.40;99.90;;;;;;5032845;28;20029;-45
2021/05/15 08:33:45;;;;;;;4.13;2.55;;;18.70;99.20;;;;;;5030898;28;20033;-46
2021/05/15 08:36:11;;;;;;;3.30;2.83;;;19.40;96.00;;;;;;5030080;28;20032;-46
2021/05/15 08:38:38;;;;;;;3.78;2.58;;;19.90;93.60;;;;;;5030139;28;20568;-46
2021/05/15 08:41:06;;;;;;;5.03;2.17;;;19.60;93.00;;;;;;5030288;28;20083;-45
2021/05/15 08:43:34;;;;;;;2.72;2.17;;;19.90;90.90;;;;;;5020860;28;20034;-45
2021/05/15 08:46:01;;;;;;;2.55;1.92;;;19.40;90.30;;;;;;5029073;28;20029;-44
2021/05/15 08:48:31;;;;;;;4.00;1.73;;;18.30;92.00;;;;;;5028821;28;20103;-45
2021/05/15 08:50:59;;;;;;;3.25;2.00;;;17.90;93.30;;;;;;5030361;28;20371;-46
2021/05/15 08:53:25;;;;;;;4.80;1.40;;;17.90;93.90;;;;;;5030705;28;20052;-45
2021/05/15 08:55:51;;;;;;;3.47;1.65;;;17.80;92.30;;;;;;5030689;28;20029;-46
2021/05/15 08:58:17;;;;;;;3.42;1.45;;;17.30;94.00;;;;;;5029769;28;20108;-48
2021/05/15 09:00:42;;;;;;;2.58;1.20;;;17.50;94.00;;;;;;5029135;28;20403;-46
2021/05/15 09:03:10;;;;;;;1.58;1.30;;;17.50;92.60;;;;;;5030316;28;20156;-45
2021/05/15 09:05:38;;;;;;;5.47;1.38;;;17.60;92.90;;;;;;5030321;28;20116;-46
2021/05/15 09:08:08;;;;;;;2.15;1.17;;;17.60;93.70;;;;;;5029433;28;20053;-46
2021/05/15 09:10:36;;;;;;;3.08;1.30;;;17.80;91.20;;;;;;5030538;28;20458;-45
2021/05/15 09:13:10;;;;;;;0.93;0.90;;;18.10;91.40;;;;;;5030203;28;20103;-45
2021/05/15 09:15:44;;;;;;;5.93;1.70;;;18.20;92.30;;;;;;5030232;28;20021;-48
2021/05/15 09:18:14;;;;;;;3.85;1.95;;;18.30;91.20;;;;;;5029352;28;20450;-43
2021/05/15 09:20:39;;;;;;;2.03;1.10;;;19.50;89.90;;;;;;5030262;28;20049;-43
2021/05/15 09:23:17;;;;;;;2.38;1.20;;;20.60;84.00;;;;;;5030005;28;20244;-44
2021/05/15 09:25:44;;;;;;;2.47;1.17;;;20.30;78.50;;;;;;5029632;28;20136;-47
2021/05/15 09:28:10;;;;;;;1.80;1.33;;;19.90;80.40;;;;;;5029221;28;20054;-45
2021/05/15 09:30:36;;;;;;;2.97;1.30;;;18.70;81.00;;;;;;5029827;28;20025;-44
2021/05/15 09:33:14;;;;;;;3.30;1.20;;;18.40;83.10;;;;;;5038961;28;20434;-45
2021/05/15 09:35:40;;;;;;;2.95;1.20;;;18.30;82.00;;;;;;5049199;28;20494;-44
2021/05/15 09:38:06;;;;;;;1.80;1.05;;;17.70;82.90;;;;;;5048754;28;20035;-44
2021/05/15 09:40:32;;;;;;;2.42;1.05;;;17.70;84.60;;;;;;5049660;28;20478;-45
2021/05/15 09:42:59;;;;;;;3.67;1.40;;;18.20;85.50;;;;;;5047474;28;20124;-44
2021/05/15 09:45:29;;;;;;;1.33;0.85;;;18.50;81.70;;;;;;5016246;28;20458;-45
2021/05/15 09:47:56;;;;;;;2.53;1.08;;;18.40;83.10;;;;;;5009225;28;20048;-46
2021/05/15 09:50:24;;;;;;;1.58;1.10;;;18.00;80.40;;;;;;5024962;28;20021;-46
2021/05/15 09:52:49;;;;;;;2.72;1.27;;;18.50;81.00;;;;;;5028466;28;20446;-45
2021/05/15 09:55:16;;;;;;;3.65;1.55;;;19.50;81.50;;;;;;5028946;28;20037;-46
2021/05/15 09:57:41;;;;;;;3.03;1.20;;;19.90;73.90;;;;;;5028546;28;20041;-43
2021/05/15 10:00:12;;;;;;;1.75;0.88;;;19.30;75.40;;;;;;5028534;28;20335;-46
2021/05/15 10:02:37;;;;;;;2.38;1.00;;;19.50;76.00;;;;;;5027145;28;20067;-46
2021/05/15 10:05:10;;;;;;;2.67;1.48;;;21.30;72.20;;;;;;5028976;28;20384;-45
2021/05/15 10:07:37;;;;;;;2.55;0.82;;;22.60;66.60;;;;;;5029044;28;20491;-46
2021/05/15 10:10:05;;;;;;;1.00;0.82;;;24.00;61.60;;;;;;5029364;28;20056;-46
2021/05/15 10:12:31;;;;;;;2.53;1.00;;;23.10;59.20;;;;;;5029449;28;20113;-47
2021/05/15 10:14:56;;;;;;;3.50;0.80;;;23.80;59.50;;;;;;5028985;28;20108;-48
2021/05/15 10:17:22;;;;;;;1.30;1.10;;;24.70;55.10;;;;;;5028661;28;20044;-47
2021/05/15 10:19:48;;;;;;;3.55;1.15;;;24.40;56.50;;;;;;5028756;28;20670;-47
2021/05/15 10:22:13;;;;;;;3.35;1.05;;;22.80;55.90;;;;;;5027619;28;20045;-46
2021/05/15 10:24:45;;;;;;;3.47;1.00;;;23.30;55.60;;;;;;5028762;28;20034;-46
2021/05/15 10:27:13;;;;;;;2.85;0.70;;;22.50;55.70;;;;;;5028797;28;20083;-46
2021/05/15 10:29:46;;;;;;;2.63;1.08;;;21.20;58.70;;;;;;5028526;28;20040;-46
2021/05/15 10:32:14;;;;;;;1.83;1.05;;;21.00;58.90;;;;;;5028076;28;20033;-45
2021/05/15 10:34:40;;;;;;;1.40;1.00;;;20.00;60.80;;;;;;5009263;28;20042;-48
2021/05/15 10:37:17;;;;;;;2.13;1.30;;;18.90;63.90;;;;;;5008464;28;20092;-48
2021/05/15 10:39:43;;;;;;;4.65;1.55;;;17.80;68.00;;;;;;5008335;28;20029;-45
2021/05/15 10:42:10;;;;;;;4.60;1.20;;;17.40;69.60;;;;;;5011242;28;20053;-45
2021/05/15 10:44:43;;;;;;;1.90;0.93;;;17.80;71.60;;;;;;5027037;28;20043;-47
2021/05/15 10:47:09;;;;;;;1.65;0.68;;;17.90;70.50;;;;;;5025293;28;20029;-46
2021/05/15 10:49:35;;;;;;;2.58;0.95;;;18.40;70.80;;;;;;5026070;28;20412;-46
2021/05/15 10:52:08;;;;;;;3.25;1.10;;;18.50;69.50;;;;;;5028340;28;20029;-46
2021/05/15 10:54:35;;;;;;;2.50;0.80;;;18.30;71.60;;;;;;5027634;28;20088;-47
2021/05/15 10:57:10;;;;;;;2.55;1.08;;;18.20;70.80;;;;;;5026586;28;20013;-45
2021/05/15 10:59:37;;;;;;;3.38;1.40;;;18.10;71.60;;;;;;5023138;28;20030;-44
2021/05/15 11:02:11;;;;;;;2.33;1.13;;;17.80;72.20;;;;;;5026391;28;20079;-47
2021/05/15 11:04:54;;;;;;;5.93;1.58;;;17.10;75.30;;;;;;5024442;28;20457;-45
2021/05/15 11:07:22;;;;;;;6.32;1.90;;;16.80;92.00;;;;;;5024816;28;20018;-46
2021/05/15 11:09:53;;;;;;;4.07;1.45;;;15.40;99.40;;;;;;5028069;28;20021;-48
2021/05/15 11:12:19;;;;;;;9.13;1.60;;;14.50;99.90;;;;;;5027607;28;20475;-46
2021/05/15 11:14:49;;;;;;;5.35;1.63;;;13.80;99.90;;;;;;5027509;28;20052;-45
2021/05/15 11:17:21;;;;;;;2.35;1.70;;;13.70;99.90;;;;;;5027407;28;20025;-46
2021/05/15 11:19:58;;;;;;;4.88;1.75;;;14.50;99.90;;;;;;5027469;28;20056;-44
2021/05/15 11:22:47;;;;;;;3.03;1.67;;;15.70;99.90;;;;;;5027099;28;20033;-45
2021/05/15 11:25:12;;;;;;;5.43;2.90;;;17.20;99.90;;;;;;5027124;28;20099;-46
2021/05/15 11:27:50;;;;;;;5.72;3.03;;;18.80;99.90;;;;;;5026609;28;20475;-45
2021/05/15 11:30:30;;;;;;;2.20;1.15;;;20.20;99.90;;;;;;5026819;28;20219;-45
2021/05/15 11:33:03;;;;;;;1.58;0.80;;;20.40;99.90;;;;;;5027956;28;20048;-46
2021/05/15 11:35:32;;;;;;;2.53;1.10;;;19.60;99.90;;;;;;5028097;28;20055;-46
2021/05/15 11:38:06;;;;;;;2.25;0.70;;;18.70;99.90;;;;;;5026655;28;20105;-45
2021/05/15 11:40:37;;;;;;;2.40;1.08;;;17.70;99.90;;;;;;5024474;28;20056;-44
2021/05/15 11:43:03;;;;;;;2.47;1.23;;;17.10;99.90;;;;;;5027467;28;20637;-44
2021/05/15 11:45:32;;;;;;;2.60;1.25;;;16.20;99.90;;;;;;5026242;28;20029;-45
2021/05/15 11:48:10;;;;;;;2.25;0.75;;;15.90;99.90;;;;;;5016504;28;20296;-45
2021/05/15 11:50:35;;;;;;;3.15;0.80;;;15.70;99.90;;;;;;5014264;28;20024;-47
2021/05/15 11:53:03;;;;;;;1.40;1.23;;;15.10;99.90;;;;;;5024861;28;20021;-45
2021/05/15 11:55:30;;;;;;;0.55;0.55;;;14.40;99.90;;;;;;5026031;28;20026;-46
2021/05/15 11:57:57;;;;;;;1.98;0.80;;;13.80;99.90;;;;;;5025467;28;20033;-44
2021/05/15 12:00:26;;;;;;;1.27;1.05;;;13.50;99.90;;;;;;5024749;28;20041;-46
2021/05/15 12:02:51;;;;;;;1.02;1.02;;;13.40;99.90;;;;;;5024409;28;20040;-45
2021/05/15 12:05:18;;;;;;;1.35;1.25;;;13.40;99.90;;;;;;5025483;28;20476;-44
2021/05/15 12:07:51;;;;;;;0.98;0.93;;;13.40;99.90;;;;;;5025209;28;20124;-45
2021/05/15 12:10:22;;;;;;;3.80;1.42;;;13.60;99.90;;;;;;5025681;28;20025;-47
2021/05/15 12:12:59;;;;;;;1.20;0.80;;;14.20;99.90;;;;;;5027471;28;20025;-46
2021/05/15 12:15:26;;;;;;;1.38;1.05;;;14.70;99.90;;;;;;5028349;28;20021;-46
2021/05/15 12:17:52;;;;;;;2.08;0.95;;;15.10;99.90;;;;;;5026055;28;20439;-45
2021/05/15 12:20:25;;;;;;;1.67;0.80;;;15.40;99.90;;;;;;5030026;28;20105;-45
2021/05/15 12:23:05;;;;;;;1.15;0.60;;;15.80;99.90;;;;;;5027758;28;20048;-46
2021/05/15 12:25:30;;;;;;;2.03;0.70;;;16.20;99.90;;;;;;5030521;28;20494;-46
2021/05/15 12:27:56;;;;;;;1.00;0.63;;;16.90;99.90;;;;;;5029216;28;20032;-45
2021/05/15 12:30:25;;;;;;;0.50;0.50;;;17.20;99.90;;;;;;5030237;28;20042;-46
2021/05/15 12:33:00;;;;;;;2.38;0.60;;;17.20;99.90;;;;;;5029277;28;20037;-46
2021/05/15 12:35:26;;;;;;;2.92;0.47;;;17.20;99.90;;;;;;5031169;28;20213;-46
2021/05/15 12:37:57;;;;;;;1.55;0.30;;;17.40;95.80;;;;;;5029899;28;20083;-45